Terminal Aerodrome Forecast
Issued by NWS

Home | Current Version | Previous Version | Text Only | Print | Product List | Glossary On
Versions: 1 2 3 4 5 6 7 8 9 10 11 12 13 14 15 16 17 18 19 20 21 22 23 24 25 26 27 28
384
FTUS43 KIND 292320
TAFLAF
TAF
KLAF 292320Z 3000/3024 09016KT P6SM OVC100
     FM300700 09012KT P6SM VCTS OVC060CB
     FM301100 11013KT 6SM -SHRA VCTS OVC035CB
     FM301200 11012KT 5SM -SHRA VCTS OVC030CB
     FM301500 11011KT 3SM -SHRA VCTS OVC015CB
     FM301800 13010KT 4SM SHRA VCTS OVC010CB
     FM302000 14009KT P6SM SHRA VCTS OVC040CB
      AMD LTD TO CLD VIS AND WIND 3001/3013=

USA.gov is the U.S. government's official web portal to all federal, state and local government web resources and services.